Time;durP1;ratioP1;P1;durP2;ratioP2;P2;SDS_P1;SDS_P2;PMS_P1;PMS_P2;Temp;Humidity;BMP_temperature;BMP_pressure;BME280_temperature;BME280_humidity;BME280_pressure;Samples;Min_cycle;Max_cycle;Signal;HPM_P1;HPM_P2
2021/04/30 00:03:53;;;;;;;30.43;20.37;;;;;;;12.75;75.50;97810.58;261449;1093;22855;-72
2021/04/30 00:08:56;;;;;;;36.03;21.10;;;;;;;12.74;75.49;97801.71;261460;1093;25990;-72
2021/04/30 00:13:58;;;;;;;33.27;20.60;;;;;;;12.75;75.95;97797.92;261385;1093;27113;-72
2021/04/30 00:19:02;;;;;;;35.05;20.65;;;;;;;12.74;76.32;97796.34;261446;1093;25887;-71
2021/04/30 00:24:07;;;;;;;25.70;17.80;;;;;;;12.72;76.60;97798.58;261392;1093;26082;-72
2021/04/30 00:29:10;;;;;;;26.83;18.03;;;;;;;12.67;76.66;97809.51;261395;1096;22841;-71
2021/04/30 00:34:13;;;;;;;27.03;17.30;;;;;;;12.63;76.38;97801.33;261693;1096;25887;-71
2021/04/30 00:39:17;;;;;;;25.50;16.90;;;;;;;12.66;76.73;97802.55;261555;1093;22839;-72
2021/04/30 00:44:20;;;;;;;25.70;16.30;;;;;;;12.63;76.39;97795.95;261413;1101;22753;-71
2021/04/30 00:49:23;;;;;;;28.45;18.40;;;;;;;12.61;76.70;97792.02;261621;1093;25855;-73
2021/04/30 00:54:27;;;;;;;26.13;15.93;;;;;;;12.60;76.76;97793.12;261349;1097;22745;-72
2021/04/30 00:59:30;;;;;;;24.40;16.85;;;;;;;12.52;76.99;97788.58;261372;1101;23385;-72
2021/04/30 01:04:33;;;;;;;25.45;14.80;;;;;;;12.42;77.03;97795.92;261274;1101;22754;-71
2021/04/30 01:09:36;;;;;;;21.03;13.47;;;;;;;12.38;77.58;97799.55;261341;1097;25953;-71
2021/04/30 01:14:38;;;;;;;17.57;12.37;;;;;;;12.35;77.60;97802.89;261323;1094;25973;-71
2021/04/30 01:19:41;;;;;;;15.77;10.07;;;;;;;12.32;78.18;97817.75;261316;1101;22808;-71
2021/04/30 01:24:51;;;;;;;15.13;9.37;;;;;;;12.27;78.18;97805.30;261382;1093;22791;-72
2021/04/30 01:30:24;;;;;;;11.60;7.60;;;;;;;12.26;78.35;97821.73;261321;1101;22764;-73
2021/04/30 01:35:28;;;;;;;11.50;7.70;;;;;;;12.23;78.95;97830.44;261326;1093;26088;-72
2021/04/30 01:40:33;;;;;;;11.30;8.40;;;;;;;12.18;78.83;97838.66;261513;1095;22761;-74
2021/04/30 01:45:53;;;;;;;10.60;7.60;;;;;;;12.18;79.17;97835.98;261370;1100;25335;-72
2021/04/30 01:50:58;;;;;;;11.90;8.10;;;;;;;12.19;79.13;97834.88;261258;1101;22857;-73
2021/04/30 01:56:06;;;;;;;8.50;6.60;;;;;;;12.22;79.03;97845.75;261367;1101;22799;-72
2021/04/30 02:01:10;;;;;;;8.75;7.20;;;;;;;12.26;79.03;97841.31;261803;1093;25934;-72
2021/04/30 02:06:15;;;;;;;10.10;7.50;;;;;;;12.28;78.52;97843.67;261365;1101;24370;-72
2021/04/30 02:11:19;;;;;;;10.15;7.70;;;;;;;12.31;78.86;97843.83;261674;1093;25967;-72
2021/04/30 02:16:21;;;;;;;8.70;6.55;;;;;;;12.25;78.80;97836.27;261415;1093;25855;-71
2021/04/30 02:21:24;;;;;;;11.07;7.73;;;;;;;12.19;78.80;97851.77;261379;1093;26057;-72
2021/04/30 02:26:29;;;;;;;10.15;7.30;;;;;;;12.14;79.19;97841.19;261266;1093;24494;-71
2021/04/30 02:31:32;;;;;;;9.35;6.75;;;;;;;12.08;79.37;97862.05;261352;1101;22770;-72
2021/04/30 02:36:37;;;;;;;9.95;7.00;;;;;;;12.02;79.17;97862.54;261408;1093;25954;-73
2021/04/30 02:41:39;;;;;;;12.35;8.25;;;;;;;12.02;79.37;97863.34;261490;1093;22819;-71
2021/04/30 02:46:46;;;;;;;10.47;7.57;;;;;;;12.04;79.37;97858.44;261400;1101;22907;-72
2021/04/30 02:51:49;;;;;;;15.93;8.67;;;;;;;12.02;79.21;97852.61;261408;1093;22737;-71
2021/04/30 02:56:55;;;;;;;9.95;7.30;;;;;;;12.01;79.50;97858.30;261462;1101;22761;-71
2021/04/30 03:02:19;;;;;;;8.60;6.30;;;;;;;12.03;79.15;97862.25;261667;1095;22859;-71
2021/04/30 03:07:24;;;;;;;11.10;7.87;;;;;;;11.99;79.05;97858.63;261612;1101;22746;-72
2021/04/30 03:12:27;;;;;;;9.15;7.40;;;;;;;11.95;78.87;97863.83;261323;1101;24323;-71
2021/04/30 03:17:30;;;;;;;9.20;7.45;;;;;;;11.94;78.44;97864.16;261430;1093;22797;-71
2021/04/30 03:22:34;;;;;;;10.85;7.35;;;;;;;11.92;78.09;97877.05;261548;1101;22762;-71
2021/04/30 03:27:37;;;;;;;7.87;6.17;;;;;;;11.77;77.51;97875.68;261235;1096;23470;-71
2021/04/30 03:32:40;;;;;;;8.15;6.05;;;;;;;11.61;77.15;97889.58;261495;1093;22730;-72
2021/04/30 03:37:43;;;;;;;7.57;5.40;;;;;;;11.51;76.97;97905.20;261377;1093;23393;-71
2021/04/30 03:42:45;;;;;;;7.27;4.90;;;;;;;11.47;76.60;97913.07;261356;1093;25867;-71
2021/04/30 03:47:48;;;;;;;5.80;4.95;;;;;;;11.46;76.13;97917.66;261385;1093;25881;-71
2021/04/30 03:52:51;;;;;;;5.35;4.65;;;;;;;11.49;75.62;97937.70;261350;1092;24427;-71
2021/04/30 03:57:53;;;;;;;8.10;5.17;;;;;;;11.52;75.63;97945.11;261614;1101;23871;-72
2021/04/30 04:02:56;;;;;;;5.80;4.40;;;;;;;11.56;75.34;97943.38;261347;1093;22819;-71
2021/04/30 04:07:59;;;;;;;6.80;4.95;;;;;;;11.64;75.04;97955.23;261389;1094;25974;-71
2021/04/30 04:13:14;;;;;;;6.45;4.10;;;;;;;11.72;74.67;97970.52;261363;1093;22738;-72
2021/04/30 04:18:19;;;;;;;6.65;4.05;;;;;;;11.79;74.05;97988.83;261510;1093;24211;-70
2021/04/30 04:23:22;;;;;;;4.90;4.40;;;;;;;11.88;73.42;97991.51;261506;1096;25900;-71
2021/04/30 04:28:25;;;;;;;7.80;4.65;;;;;;;11.90;72.95;98005.42;261515;1095;25986;-71
2021/04/30 04:33:31;;;;;;;7.13;4.97;;;;;;;11.89;72.48;98009.20;261538;1093;25823;-71
2021/04/30 04:38:34;;;;;;;7.25;4.85;;;;;;;11.91;72.46;98015.84;261412;1101;23772;-71
2021/04/30 04:43:37;;;;;;;6.65;4.60;;;;;;;11.97;72.71;98024.55;261392;1093;25893;-70
2021/04/30 04:48:40;;;;;;;5.00;4.10;;;;;;;12.05;72.02;98026.45;261404;1101;23460;-71
2021/04/30 04:53:44;;;;;;;5.20;4.25;;;;;;;12.14;71.72;98037.17;261386;1093;22751;-71
2021/04/30 04:58:54;;;;;;;5.00;4.50;;;;;;;12.21;71.43;98039.39;261441;1101;22783;-70
2021/04/30 05:03:57;;;;;;;6.50;5.60;;;;;;;12.22;70.98;98041.75;261370;1093;24369;-71
2021/04/30 05:08:59;;;;;;;7.40;5.50;;;;;;;12.26;71.01;98047.30;261299;1095;27668;-72
2021/04/30 05:14:05;;;;;;;5.75;5.15;;;;;;;12.37;71.12;98039.68;261356;1093;24504;-71
2021/04/30 05:19:08;;;;;;;6.30;5.30;;;;;;;12.50;70.43;98055.63;261387;1093;25886;-71
2021/04/30 05:24:12;;;;;;;6.37;5.60;;;;;;;12.65;70.12;98067.78;261398;1093;27626;-70
2021/04/30 05:29:15;;;;;;;8.25;5.80;;;;;;;12.89;69.90;98071.84;261395;1101;22870;-70
2021/04/30 05:34:19;;;;;;;5.90;5.10;;;;;;;13.21;69.13;98080.44;261720;1093;24428;-71
2021/04/30 05:39:23;;;;;;;6.73;6.03;;;;;;;13.32;68.12;98070.89;261821;1093;22715;-71
2021/04/30 05:44:25;;;;;;;6.40;5.30;;;;;;;13.27;67.75;98081.83;261691;1093;25967;-71
2021/04/30 05:49:28;;;;;;;7.53;5.77;;;;;;;13.04;67.82;98069.73;261767;1101;24302;-71
2021/04/30 05:54:31;;;;;;;7.70;6.40;;;;;;;12.72;67.67;98067.30;261796;1093;24393;-70
2021/04/30 05:59:35;;;;;;;7.25;6.50;;;;;;;12.63;68.19;98069.20;263513;1091;23420;-70
2021/04/30 06:04:39;;;;;;;6.77;5.80;;;;;;;12.62;68.38;98078.39;262919;1093;25954;-72
2021/04/30 06:09:42;;;;;;;10.23;6.30;;;;;;;12.57;68.63;98087.38;262189;1101;22789;-70
2021/04/30 06:14:44;;;;;;;9.03;7.03;;;;;;;12.52;68.61;98084.08;261439;1101;22902;-71
2021/04/30 06:19:47;;;;;;;10.85;8.30;;;;;;;12.41;69.35;98081.72;261923;1093;22713;-69
2021/04/30 06:24:50;;;;;;;10.57;7.17;;;;;;;12.40;69.26;98077.45;262236;1096;22791;-71
2021/04/30 06:29:53;;;;;;;7.70;6.95;;;;;;;12.42;69.69;98067.19;265262;1093;22776;-70
2021/04/30 06:34:56;;;;;;;9.10;7.60;;;;;;;12.48;69.86;98082.03;262563;1093;25963;-70
2021/04/30 06:40:04;;;;;;;9.07;7.87;;;;;;;12.57;69.68;98075.86;262067;1094;22770;-69
2021/04/30 06:45:16;;;;;;;7.83;6.90;;;;;;;12.67;70.14;98078.20;264955;1094;23464;-70
2021/04/30 06:50:19;;;;;;;6.60;6.00;;;;;;;12.75;69.70;98082.78;261989;1093;24383;-71
2021/04/30 06:55:23;;;;;;;11.05;6.75;;;;;;;13.21;70.37;98087.70;264223;1100;23820;-71
2021/04/30 07:00:26;;;;;;;7.50;6.50;;;;;;;13.47;69.22;98091.13;261793;1101;24548;-70
2021/04/30 07:05:28;;;;;;;9.40;7.00;;;;;;;13.50;68.57;98084.28;260766;1093;22946;-71
2021/04/30 07:10:36;;;;;;;7.25;6.35;;;;;;;13.69;68.49;98083.88;261787;1093;24428;-71
2021/04/30 07:15:39;;;;;;;6.43;5.00;;;;;;;13.96;67.57;98089.88;261894;1101;22800;-70
2021/04/30 07:20:54;;;;;;;6.97;5.67;;;;;;;14.07;66.33;98101.06;261820;1093;22789;-71
2021/04/30 07:26:10;;;;;;;5.65;5.15;;;;;;;14.18;65.59;98103.02;260457;1096;22737;-70
2021/04/30 07:31:13;;;;;;;6.20;5.10;;;;;;;14.31;64.47;98098.52;263821;1093;26930;-70
2021/04/30 07:36:23;;;;;;;5.70;5.10;;;;;;;14.78;63.88;98102.87;264309;1095;22738;-71
2021/04/30 07:41:29;;;;;;;4.80;4.30;;;;;;;15.32;63.33;98107.38;261808;1093;22734;-71
2021/04/30 07:46:32;;;;;;;4.63;2.97;;;;;;;15.85;61.42;98115.63;261832;1093;26002;-70
2021/04/30 07:51:38;;;;;;;4.60;4.20;;;;;;;16.03;59.93;98118.05;261963;1094;22776;-70
2021/04/30 07:56:40;;;;;;;8.20;5.75;;;;;;;16.24;58.81;98110.59;261971;1093;25974;-70
2021/04/30 08:01:44;;;;;;;4.85;4.00;;;;;;;16.48;55.95;98119.77;261933;1093;25855;-71
2021/04/30 08:06:46;;;;;;;4.70;4.20;;;;;;;16.51;57.44;98112.86;261720;1101;22765;-71
2021/04/30 08:11:49;;;;;;;4.57;4.13;;;;;;;16.39;55.89;98119.11;260111;1093;25862;-70
2021/04/30 08:16:52;;;;;;;5.27;4.33;;;;;;;16.38;56.57;98120.23;261922;1093;23405;-70
2021/04/30 08:21:55;;;;;;;4.75;4.00;;;;;;;16.65;56.27;98125.98;261819;1101;24440;-70
2021/04/30 08:26:58;;;;;;;4.65;3.80;;;;;;;16.80;53.54;98124.47;262049;1095;22763;-70
2021/04/30 08:32:01;;;;;;;4.40;3.75;;;;;;;17.07;54.29;98125.61;266536;1101;22782;-72
2021/04/30 08:37:05;;;;;;;5.87;3.30;;;;;;;17.28;51.31;98128.84;262276;1093;26162;-70
2021/04/30 08:42:18;;;;;;;4.10;3.70;;;;;;;17.24;52.37;98127.20;262270;1093;24186;-71
2021/04/30 08:47:23;;;;;;;4.13;3.73;;;;;;;17.43;51.52;98134.61;267236;1094;22762;-70
2021/04/30 08:52:26;;;;;;;4.50;3.60;;;;;;;17.39;50.90;98129.13;262322;1093;23489;-71
2021/04/30 08:57:30;;;;;;;3.70;2.75;;;;;;;17.49;48.08;98141.35;262271;1098;22771;-71
2021/04/30 09:02:38;;;;;;;4.40;3.60;;;;;;;17.33;49.62;98154.09;262394;1093;26290;-71
2021/04/30 09:07:43;;;;;;;6.65;3.85;;;;;;;17.17;49.45;98152.16;262548;1096;22738;-70
2021/04/30 09:13:11;;;;;;;3.60;3.30;;;;;;;17.08;49.80;98146.91;262830;1093;22758;-71
2021/04/30 09:18:25;;;;;;;4.00;3.50;;;;;;;17.02;49.18;98148.28;261834;1096;22712;-71
2021/04/30 09:23:31;;;;;;;5.47;3.47;;;;;;;16.95;50.21;98148.09;261984;1093;27205;-71
2021/04/30 09:28:33;;;;;;;3.63;3.33;;;;;;;17.34;51.04;98139.42;261926;1093;25932;-72
2021/04/30 09:33:36;;;;;;;3.60;3.25;;;;;;;17.72;49.68;98157.75;261733;1101;22860;-71
2021/04/30 09:38:39;;;;;;;3.40;3.10;;;;;;;17.59;48.04;98151.65;261692;1101;22774;-71
2021/04/30 09:43:51;;;;;;;6.20;3.70;;;;;;;17.37;47.42;98152.27;261794;1101;22771;-73
2021/04/30 09:49:01;;;;;;;3.20;2.90;;;;;;;17.47;47.69;98142.83;261833;1093;27616;-72
2021/04/30 09:54:15;;;;;;;3.70;3.25;;;;;;;17.77;47.20;98132.34;261829;1101;24232;-69
2021/04/30 09:59:24;;;;;;;3.03;2.70;;;;;;;17.92;45.98;98141.59;261991;1095;22774;-70
2021/04/30 10:04:31;;;;;;;4.35;3.00;;;;;;;18.11;44.15;98135.44;261769;1101;22829;-70
2021/04/30 10:09:35;;;;;;;3.30;3.00;;;;;;;18.30;44.15;98138.18;261859;1101;22799;-71
2021/04/30 10:14:38;;;;;;;3.45;2.80;;;;;;;18.64;44.51;98124.91;261731;1093;23600;-71
2021/04/30 10:19:43;;;;;;;3.20;2.55;;;;;;;18.79;42.51;98122.48;261713;1097;24222;-70
2021/04/30 10:24:56;;;;;;;3.70;2.00;;;;;;;19.01;42.90;98128.33;261890;1101;23470;-71
2021/04/30 10:30:18;;;;;;;2.65;2.10;;;;;;;19.10;41.80;98131.61;261931;1093;23538;-71
2021/04/30 10:35:49;;;;;;;2.53;2.33;;;;;;;19.21;41.94;98129.06;261870;1101;22758;-70
2021/04/30 10:40:52;;;;;;;2.30;2.05;;;;;;;19.12;38.47;98116.50;261886;1093;22767;-70
2021/04/30 10:46:01;;;;;;;2.85;2.20;;;;;;;18.93;40.53;98124.72;262107;1093;25938;-71
2021/04/30 10:51:15;;;;;;;2.25;2.15;;;;;;;18.86;39.92;98117.19;262252;1093;25855;-69
2021/04/30 10:56:31;;;;;;;2.47;2.27;;;;;;;18.94;40.11;98110.78;261749;1101;22731;-71
2021/04/30 11:01:36;;;;;;;2.90;2.10;;;;;;;19.04;39.91;98120.27;261782;1093;25851;-70
2021/04/30 11:06:42;;;;;;;2.25;2.05;;;;;;;19.29;40.80;98109.84;261752;1093;25862;-70
2021/04/30 11:11:48;;;;;;;2.87;2.20;;;;;;;19.76;40.42;98105.11;261758;1093;25906;-70
2021/04/30 11:16:56;;;;;;;4.80;2.40;;;;;;;19.91;39.55;98114.30;262108;1101;24408;-70
2021/04/30 11:22:15;;;;;;;2.55;2.20;;;;;;;20.00;39.88;98098.48;265175;1093;26693;-70
2021/04/30 11:27:21;;;;;;;2.60;2.30;;;;;;;20.00;38.34;98101.20;261991;1101;24398;-71
2021/04/30 11:32:27;;;;;;;4.50;3.07;;;;;;;20.03;39.40;98096.97;261783;1101;23454;-71
2021/04/30 11:37:30;;;;;;;10.10;3.70;;;;;;;19.88;38.65;98096.02;261963;1101;22799;-70
2021/04/30 11:43:04;;;;;;;3.57;2.30;;;;;;;19.84;39.47;98095.17;261689;1094;22738;-71
2021/04/30 11:48:09;;;;;;;2.97;2.77;;;;;;;19.69;38.89;98094.14;261770;1093;22799;-71
2021/04/30 11:53:13;;;;;;;2.90;2.60;;;;;;;19.42;38.27;98106.91;261635;1101;22868;-70
2021/04/30 11:58:16;;;;;;;2.83;2.63;;;;;;;19.49;36.57;98112.48;262041;1101;22738;-70
2021/04/30 12:03:19;;;;;;;2.80;2.50;;;;;;;19.66;37.30;98111.95;261854;1093;27231;-71
2021/04/30 12:08:21;;;;;;;2.65;2.45;;;;;;;19.64;37.86;98103.41;264413;1093;26305;-71
2021/04/30 12:13:24;;;;;;;3.77;3.33;;;;;;;19.86;36.79;98105.67;261899;1093;24565;-71
2021/04/30 12:18:32;;;;;;;3.07;2.77;;;;;;;19.74;37.02;98102.00;262299;1093;25460;-70
2021/04/30 12:23:56;;;;;;;6.45;3.30;;;;;;;19.80;38.27;98099.77;261785;1093;26261;-71
2021/04/30 12:29:09;;;;;;;3.58;3.28;;;;;;;19.60;37.25;98099.84;261780;1093;22790;-70
2021/04/30 12:34:12;;;;;;;4.53;2.73;;;;;;;19.71;37.49;98096.50;261673;1093;25865;-71
2021/04/30 12:39:17;;;;;;;3.55;2.60;;;;;;;19.97;38.61;98082.92;261764;1093;23008;-71
2021/04/30 12:44:35;;;;;;;2.95;2.70;;;;;;;19.93;36.85;98084.80;261618;1095;22748;-71
2021/04/30 12:49:55;;;;;;;3.73;3.17;;;;;;;19.80;37.32;98067.16;261726;1101;22756;-72
2021/04/30 12:54:59;;;;;;;3.43;3.10;;;;;;;19.85;37.47;98063.34;261791;1093;26266;-71
2021/04/30 13:00:03;;;;;;;5.43;3.00;;;;;;;19.95;37.13;98068.92;261713;1094;23355;-71
2021/04/30 13:05:08;;;;;;;3.65;3.35;;;;;;;19.91;36.91;98062.66;261857;1093;22715;-71
2021/04/30 13:10:25;;;;;;;3.60;3.20;;;;;;;19.99;37.62;98058.08;261803;1093;26273;-71
2021/04/30 13:15:28;;;;;;;3.60;3.30;;;;;;;20.16;35.88;98064.89;262058;1093;26684;-70
2021/04/30 13:20:31;;;;;;;3.17;2.87;;;;;;;20.24;35.69;98052.95;261712;1093;22740;-71
2021/04/30 13:25:38;;;;;;;4.63;2.80;;;;;;;20.19;36.96;98039.71;261833;1101;22788;-71
2021/04/30 13:30:46;;;;;;;4.15;2.80;;;;;;;19.91;36.42;98038.20;261767;1093;23399;-71
2021/04/30 13:35:51;;;;;;;3.00;2.60;;;;;;;19.72;36.16;98025.48;261963;1101;22732;-71
2021/04/30 13:41:24;;;;;;;3.05;2.70;;;;;;;19.73;37.10;98026.28;261686;1093;22760;-72
2021/04/30 13:46:33;;;;;;;4.30;3.25;;;;;;;19.77;34.22;98024.40;261839;1101;22758;-71
2021/04/30 13:51:44;;;;;;;3.17;2.80;;;;;;;19.36;34.28;98016.81;261717;1101;23012;-71
2021/04/30 13:56:47;;;;;;;3.25;2.95;;;;;;;19.18;35.80;98026.63;262103;1093;22929;-71
2021/04/30 14:01:49;;;;;;;3.87;2.93;;;;;;;19.40;36.88;98030.46;262257;1093;22776;-71
2021/04/30 14:06:53;;;;;;;4.77;2.60;;;;;;;19.62;35.62;98029.61;262579;1101;22737;-71
2021/04/30 14:11:56;;;;;;;4.50;2.73;;;;;;;19.71;35.42;98039.44;262355;1096;22745;-71
2021/04/30 14:16:59;;;;;;;2.85;2.05;;;;;;;19.91;34.84;98040.11;262602;1093;25916;-72
2021/04/30 14:22:06;;;;;;;2.90;2.30;;;;;;;20.00;35.02;98035.97;261981;1093;25819;-71
2021/04/30 14:27:24;;;;;;;3.53;2.87;;;;;;;20.17;34.20;98037.36;261340;1093;25864;-71
2021/04/30 14:32:27;;;;;;;2.83;2.63;;;;;;;20.11;34.42;98027.18;261576;1095;25864;-72
2021/04/30 14:37:39;;;;;;;3.30;2.57;;;;;;;20.18;34.63;98038.13;261476;1093;24373;-72
2021/04/30 14:42:47;;;;;;;2.67;2.47;;;;;;;20.33;34.48;98020.83;261339;1093;26203;-73
2021/04/30 14:47:51;;;;;;;2.60;2.40;;;;;;;20.44;34.31;98023.67;261354;1101;24390;-73
2021/04/30 14:52:54;;;;;;;2.57;2.30;;;;;;;20.39;33.23;98020.50;261436;1093;26054;-71
2021/04/30 14:57:57;;;;;;;2.10;1.90;;;;;;;20.42;33.73;98025.20;261457;1093;25895;-72
2021/04/30 15:02:59;;;;;;;2.20;1.97;;;;;;;20.40;32.60;98022.84;261688;1093;23414;-72
2021/04/30 15:08:02;;;;;;;2.47;2.10;;;;;;;20.31;32.61;98017.71;261477;1093;26028;-72
2021/04/30 15:13:05;;;;;;;2.30;2.10;;;;;;;20.22;32.63;98022.65;261441;1093;26079;-71
2021/04/30 15:18:08;;;;;;;2.60;2.40;;;;;;;20.30;33.30;98024.30;261447;1093;22767;-72
2021/04/30 15:23:11;;;;;;;2.65;2.28;;;;;;;20.33;32.38;98020.83;261443;1094;22738;-72
2021/04/30 15:28:13;;;;;;;1.60;1.50;;;;;;;20.30;31.75;98016.14;261427;1093;26060;-72
2021/04/30 15:33:25;;;;;;;2.30;2.10;;;;;;;20.20;31.25;98019.50;261621;1101;23603;-71
2021/04/30 15:38:29;;;;;;;3.07;2.10;;;;;;;20.09;32.55;98019.39;261513;1101;22768;-72
2021/04/30 15:43:32;;;;;;;4.83;1.93;;;;;;;20.02;32.55;98018.52;261372;1093;22757;-71
2021/04/30 15:48:35;;;;;;;2.57;2.07;;;;;;;19.98;32.75;98019.26;261409;1093;26025;-72
2021/04/30 15:53:38;;;;;;;2.95;2.00;;;;;;;19.95;32.57;98021.92;261489;1101;22859;-72
2021/04/30 15:58:42;;;;;;;3.40;2.17;;;;;;;19.92;33.61;98031.62;261548;1101;22755;-72
2021/04/30 16:03:46;;;;;;;3.10;2.80;;;;;;;19.88;34.88;98032.70;261383;1097;22767;-71
2021/04/30 16:08:50;;;;;;;3.53;2.80;;;;;;;19.77;35.27;98024.40;261536;1101;23606;-71
2021/04/30 16:13:52;;;;;;;3.95;3.05;;;;;;;19.69;35.61;98020.02;261490;1094;24544;-72
2021/04/30 16:18:56;;;;;;;3.87;3.37;;;;;;;19.59;36.31;98008.63;262149;1098;22822;-72
2021/04/30 16:23:58;;;;;;;4.10;3.00;;;;;;;19.43;36.47;98003.37;262351;1093;25870;-71
2021/04/30 16:29:01;;;;;;;6.60;3.35;;;;;;;19.23;36.86;98008.09;261844;1098;22807;-71
2021/04/30 16:34:04;;;;;;;5.15;3.40;;;;;;;19.08;37.21;98001.68;262119;1093;25833;-72
2021/04/30 16:39:07;;;;;;;4.20;3.25;;;;;;;18.98;37.33;97996.84;261827;1093;26073;-72
2021/04/30 16:44:11;;;;;;;3.10;2.55;;;;;;;18.84;37.53;98002.79;262267;1093;22798;-72
2021/04/30 16:49:15;;;;;;;6.60;3.20;;;;;;;18.67;38.00;98006.00;262252;1093;24353;-71
2021/04/30 16:54:19;;;;;;;6.55;2.90;;;;;;;18.55;38.23;98005.03;262385;1093;22731;-72
2021/04/30 16:59:25;;;;;;;3.80;3.20;;;;;;;18.44;38.23;98004.82;261980;1093;25458;-71
2021/04/30 17:04:36;;;;;;;5.05;3.95;;;;;;;18.34;38.92;98012.75;262168;1098;24537;-71
2021/04/30 17:09:40;;;;;;;5.60;3.70;;;;;;;18.11;38.59;98010.77;261853;1094;22748;-71
2021/04/30 17:14:43;;;;;;;4.95;4.05;;;;;;;17.89;39.18;98017.64;261783;1098;22758;-71
2021/04/30 17:19:46;;;;;;;6.60;4.70;;;;;;;17.72;39.70;98037.80;262001;1098;23457;-71
2021/04/30 17:24:54;;;;;;;5.75;3.70;;;;;;;17.54;40.03;98040.11;262153;1093;24134;-71
2021/04/30 17:29:57;;;;;;;5.20;4.20;;;;;;;17.35;39.98;98046.23;262083;1098;22933;-72
2021/04/30 17:35:02;;;;;;;5.20;3.85;;;;;;;17.18;40.73;98053.59;262187;1092;25855;-72
2021/04/30 17:40:05;;;;;;;4.65;3.95;;;;;;;16.97;41.02;98061.98;261944;1093;26411;-72
2021/04/30 17:45:10;;;;;;;6.73;4.80;;;;;;;16.73;41.33;98073.67;261880;1098;22765;-75
2021/04/30 17:50:13;;;;;;;5.90;4.87;;;;;;;16.47;41.38;98079.56;261872;1098;22735;-71
2021/04/30 17:55:25;;;;;;;10.50;6.65;;;;;;;16.12;41.87;98089.01;262481;1092;25964;-71
2021/04/30 18:00:29;;;;;;;8.20;6.20;;;;;;;15.76;42.38;98096.01;262662;1093;25861;-71
2021/04/30 18:05:47;;;;;;;10.35;7.90;;;;;;;15.42;42.94;98108.04;262098;1093;24232;-72
2021/04/30 18:10:50;;;;;;;10.50;6.30;;;;;;;15.10;43.51;98110.49;262046;1093;25842;-71
2021/04/30 18:15:52;;;;;;;8.20;6.20;;;;;;;14.81;43.80;98123.77;262196;1098;23412;-72
2021/04/30 18:20:55;;;;;;;9.90;6.55;;;;;;;14.53;44.34;98129.69;261896;1093;24160;-72
2021/04/30 18:25:57;;;;;;;9.57;7.50;;;;;;;14.28;45.10;98144.16;261873;1098;24279;-72
2021/04/30 18:31:00;;;;;;;8.15;6.70;;;;;;;14.06;45.44;98151.45;262219;1093;24252;-71
2021/04/30 18:36:05;;;;;;;9.03;7.13;;;;;;;13.89;45.99;98151.54;262260;1093;27380;-71
2021/04/30 18:41:09;;;;;;;8.05;6.60;;;;;;;13.75;45.91;98152.55;261883;1093;22810;-71
2021/04/30 18:46:16;;;;;;;8.47;6.60;;;;;;;13.67;46.12;98164.16;261882;1098;22764;-71
2021/04/30 18:51:19;;;;;;;10.10;7.00;;;;;;;13.59;46.68;98168.45;262108;1098;22757;-72
2021/04/30 18:56:22;;;;;;;8.90;6.70;;;;;;;13.52;46.60;98182.41;261871;1098;24424;-71
2021/04/30 19:01:27;;;;;;;9.57;7.17;;;;;;;13.41;46.87;98183.87;262242;1098;23366;-71
2021/04/30 19:06:30;;;;;;;10.15;7.30;;;;;;;13.29;47.15;98189.09;261864;1093;24530;-71
2021/04/30 19:11:35;;;;;;;9.30;7.00;;;;;;;13.17;47.67;98198.61;262078;1098;23543;-71
2021/04/30 19:16:38;;;;;;;10.07;7.43;;;;;;;13.07;48.08;98212.39;262242;1098;22839;-71
2021/04/30 19:21:41;;;;;;;7.60;6.80;;;;;;;12.99;48.19;98218.56;262019;1093;25977;-70
2021/04/30 19:26:44;;;;;;;8.50;6.70;;;;;;;12.90;48.21;98228.52;261865;1098;24411;-72
2021/04/30 19:32:02;;;;;;;9.25;7.25;;;;;;;12.80;48.71;98233.13;261930;1093;22735;-72
2021/04/30 19:37:10;;;;;;;8.53;6.33;;;;;;;12.69;48.22;98229.17;262230;1098;22801;-72
2021/04/30 19:42:15;;;;;;;9.25;7.45;;;;;;;12.61;48.86;98232.64;262201;1098;22762;-72
2021/04/30 19:47:18;;;;;;;13.27;8.87;;;;;;;12.48;48.96;98229.78;262215;1098;22758;-71
2021/04/30 19:52:21;;;;;;;10.05;7.90;;;;;;;12.38;48.94;98240.02;261539;1093;24135;-71
2021/04/30 19:57:26;;;;;;;8.30;6.80;;;;;;;12.25;49.62;98247.11;261579;1093;22844;-70
2021/04/30 20:02:30;;;;;;;9.37;7.20;;;;;;;12.10;50.11;98240.27;261858;1093;26214;-71
2021/04/30 20:07:34;;;;;;;12.57;8.73;;;;;;;11.92;50.26;98226.77;261838;1098;23015;-71
2021/04/30 20:12:38;;;;;;;10.40;7.90;;;;;;;11.70;51.24;98246.40;262276;1094;22738;-71
2021/04/30 20:17:41;;;;;;;10.83;8.13;;;;;;;11.50;51.77;98258.45;262288;1098;24247;-71
2021/04/30 20:22:45;;;;;;;9.90;8.30;;;;;;;11.28;52.27;98248.53;262252;1098;22737;-72
2021/04/30 20:27:48;;;;;;;12.85;9.15;;;;;;;11.07;52.68;98257.05;262238;1098;24411;-72
2021/04/30 20:32:51;;;;;;;11.45;9.65;;;;;;;10.88;53.30;98272.50;261922;1093;26076;-71
2021/04/30 20:37:54;;;;;;;12.33;9.97;;;;;;;10.71;54.45;98271.25;261837;1094;24391;-71
2021/04/30 20:42:56;;;;;;;14.03;10.53;;;;;;;10.56;54.72;98279.61;262030;1092;26099;-70
2021/04/30 20:47:59;;;;;;;13.20;9.90;;;;;;;10.39;54.90;98283.69;262292;1092;25967;-71
2021/04/30 20:53:02;;;;;;;12.87;9.97;;;;;;;10.26;55.58;98273.77;262147;1098;22734;-71
2021/04/30 20:58:06;;;;;;;14.93;10.30;;;;;;;10.14;55.65;98294.88;261855;1093;26220;-71
2021/04/30 21:03:10;;;;;;;13.60;11.30;;;;;;;10.05;56.20;98279.51;262172;1092;25852;-72
2021/04/30 21:08:15;;;;;;;14.27;11.47;;;;;;;9.96;56.76;98272.47;262030;1098;24363;-70
2021/04/30 21:18:41;;;;;;;17.33;13.20;;;;;;;9.69;56.95;98274.80;262223;1093;25940;-71
2021/04/30 21:23:44;;;;;;;15.90;12.40;;;;;;;9.59;57.32;98278.45;262181;1093;22768;-71
2021/04/30 21:28:46;;;;;;;13.85;12.10;;;;;;;9.53;57.39;98278.84;262131;1092;25964;-70
2021/04/30 21:33:49;;;;;;;18.13;13.10;;;;;;;9.42;57.87;98275.55;262050;1093;22967;-71
2021/04/30 21:38:52;;;;;;;14.43;10.40;;;;;;;9.31;58.22;98279.47;261703;1093;24422;-71
2021/04/30 21:43:54;;;;;;;21.20;14.75;;;;;;;9.20;58.57;98284.95;262136;1093;23006;-71
2021/04/30 21:48:57;;;;;;;14.37;11.23;;;;;;;9.10;59.23;98290.47;261812;1093;25862;-71
2021/04/30 21:54:00;;;;;;;16.47;12.23;;;;;;;9.05;58.79;98285.19;262045;1098;22972;-71
2021/04/30 21:59:04;;;;;;;16.50;12.33;;;;;;;8.97;59.16;98294.66;262174;1093;22806;-71
2021/04/30 22:04:19;;;;;;;14.90;11.70;;;;;;;8.87;59.15;98314.30;262205;1098;22725;-71
2021/04/30 22:09:26;;;;;;;18.20;12.30;;;;;;;8.80;59.48;98324.55;262298;1098;22900;-72
2021/04/30 22:14:29;;;;;;;15.70;12.67;;;;;;;8.76;60.01;98325.39;262150;1092;28529;-72
2021/04/30 22:19:33;;;;;;;24.53;16.90;;;;;;;8.72;60.16;98339.32;261731;1093;25890;-72
2021/04/30 22:24:37;;;;;;;19.40;15.37;;;;;;;8.64;60.60;98334.61;262071;1092;27144;-70
2021/04/30 22:29:39;;;;;;;20.00;14.57;;;;;;;8.54;60.16;98342.76;261762;1093;25861;-71
2021/04/30 22:34:42;;;;;;;19.20;15.10;;;;;;;8.42;61.12;98337.77;261808;1092;25894;-70
2021/04/30 22:39:45;;;;;;;26.13;18.87;;;;;;;8.33;60.83;98336.83;261869;1093;25830;-71
2021/04/30 22:44:49;;;;;;;23.20;18.23;;;;;;;8.30;61.42;98332.84;262208;1093;22814;-71
2021/04/30 22:49:52;;;;;;;21.80;16.87;;;;;;;8.28;61.55;98332.35;262170;1093;22741;-71
2021/04/30 22:54:55;;;;;;;19.97;16.60;;;;;;;8.23;61.82;98329.73;261887;1093;23580;-71
2021/04/30 23:00:00;;;;;;;20.43;15.03;;;;;;;8.17;61.81;98330.84;262320;1093;23024;-70
2021/04/30 23:05:05;;;;;;;18.77;14.47;;;;;;;8.09;62.67;98329.60;262222;1098;22758;-72
2021/04/30 23:10:08;;;;;;;20.53;16.13;;;;;;;8.03;61.87;98322.71;262177;1098;22858;-71
2021/04/30 23:15:18;;;;;;;17.93;13.60;;;;;;;7.97;61.95;98335.31;261975;1093;22877;-72
2021/04/30 23:20:36;;;;;;;17.60;13.23;;;;;;;7.89;62.91;98335.95;261918;1092;26538;-70
2021/04/30 23:25:38;;;;;;;17.13;12.60;;;;;;;7.83;63.18;98345.05;262158;1093;27154;-71
2021/04/30 23:30:42;;;;;;;16.23;12.87;;;;;;;7.80;63.05;98335.73;261944;1093;22751;-71
2021/04/30 23:35:58;;;;;;;16.23;11.97;;;;;;;7.76;63.74;98324.03;261844;1098;23467;-71
2021/04/30 23:41:08;;;;;;;17.17;12.23;;;;;;;7.69;63.32;98327.05;262148;1098;22757;-72